Time;durP1;ratioP1;P1;durP2;ratioP2;P2;SDS_P1;SDS_P2;PMS_P1;PMS_P2;Temp;Humidity;BMP_temperature;BMP_pressure;BME280_temperature;BME280_humidity;BME280_pressure;Samples;Min_cycle;Max_cycle;Signal;HPM_P1;HPM_P2
2022/05/03 00:02:20;;;;;;;;;16.00;12.00;;;26.77;97481.91;;;;117335;1190;24933;-59
2022/05/03 00:05:09;;;;;;;;;13.00;11.33;;;26.71;97483.88;;;;117350;1190;25073;-58
2022/05/03 00:07:47;;;;;;;;;17.50;12.75;;;26.69;97483.92;;;;117369;1190;24791;-59
2022/05/03 00:10:37;;;;;;;;;17.25;14.75;;;26.69;97482.48;;;;117328;1191;26103;-60
2022/05/03 00:13:07;;;;;;;;;14.00;11.50;;;26.72;97477.80;;;;117367;1190;25189;-60
2022/05/03 00:15:39;;;;;;;;;16.33;12.00;;;26.71;97471.64;;;;117400;1190;25637;-60
2022/05/03 00:18:08;;;;;;;;;11.00;9.25;;;26.68;97470.24;;;;117348;1190;24995;-61
2022/05/03 00:20:36;;;;;;;;;16.00;14.50;;;26.67;97472.50;;;;117359;1190;25396;-61
2022/05/03 00:23:05;;;;;;;;;12.50;10.00;;;26.65;97473.27;;;;117371;1191;25193;-59
2022/05/03 00:25:33;;;;;;;;;14.75;13.00;;;26.64;97476.12;;;;117395;1189;24959;-62
2022/05/03 00:28:01;;;;;;;;;15.00;11.33;;;26.63;97474.16;;;;117331;1191;25175;-60
2022/05/03 00:30:30;;;;;;;;;15.50;14.25;;;26.61;97473.98;;;;117347;1189;25375;-62
2022/05/03 00:33:00;;;;;;;;;14.75;13.00;;;26.59;97471.52;;;;117353;1191;26472;-59
2022/05/03 00:35:28;;;;;;;;;15.67;14.33;;;26.59;97474.29;;;;117378;1191;25539;-58
2022/05/03 00:37:56;;;;;;;;;14.25;11.25;;;26.57;97475.17;;;;117335;1190;25662;-59
2022/05/03 00:40:24;;;;;;;;;16.25;13.25;;;26.56;97477.73;;;;117351;1190;25680;-62
2022/05/03 00:42:55;;;;;;;;;14.75;11.50;;;26.54;97475.67;;;;117326;1189;25450;-60
2022/05/03 00:45:37;;;;;;;;;12.75;11.50;;;26.54;97470.59;;;;117387;1190;25284;-61
2022/05/03 00:48:24;;;;;;;;;12.25;12.25;;;26.56;97468.08;;;;117324;1190;25851;-60
2022/05/03 00:50:54;;;;;;;;;15.67;13.00;;;26.57;97470.00;;;;117365;1191;24953;-60
2022/05/03 00:53:24;;;;;;;;;16.00;12.50;;;26.53;97471.10;;;;117383;1190;25397;-61
2022/05/03 00:56:18;;;;;;;;;15.50;14.50;;;26.53;97471.62;;;;117368;1190;24846;-61
2022/05/03 00:58:55;;;;;;;;;13.00;12.75;;;26.56;97478.41;;;;117359;1190;25446;-60
2022/05/03 01:01:50;;;;;;;;;15.75;12.50;;;26.53;97480.21;;;;117331;1190;24857;-58
2022/05/03 01:05:03;;;;;;;;;14.00;12.33;;;26.53;97481.38;;;;117416;1190;25298;-59
2022/05/03 01:07:34;;;;;;;;;12.00;11.25;;;26.62;97480.42;;;;117156;1191;25565;-61
2022/05/03 01:10:06;;;;;;;;;12.50;11.50;;;26.61;97480.83;;;;117364;1190;25201;-60
2022/05/03 01:13:02;;;;;;;;;13.25;12.50;;;26.57;97477.48;;;;117389;1189;25535;-61
2022/05/03 01:15:37;;;;;;;;;13.00;11.67;;;26.56;97478.80;;;;117337;1189;25554;-59
2022/05/03 01:18:28;;;;;;;;;12.00;10.33;;;26.54;97480.42;;;;117442;1190;25566;-60
2022/05/03 01:21:05;;;;;;;;;13.67;12.00;;;26.55;97482.73;;;;117430;1190;25741;-62
2022/05/03 01:23:52;;;;;;;;;13.50;11.50;;;26.54;97481.84;;;;117367;1191;25557;-61
2022/05/03 01:26:38;;;;;;;;;17.50;14.75;;;26.54;97479.43;;;;117397;1190;25124;-60
2022/05/03 01:29:18;;;;;;;;;12.00;10.25;;;26.52;97471.94;;;;117376;1190;24888;-60
2022/05/03 01:31:46;;;;;;;;;15.50;11.00;;;26.51;97471.21;;;;117381;1190;24796;-61
2022/05/03 01:34:19;;;;;;;;;15.33;13.67;;;26.51;97473.16;;;;117430;1190;26155;-60
2022/05/03 01:37:28;;;;;;;;;9.25;8.50;;;26.52;97475.66;;;;117355;1189;25083;-59
2022/05/03 01:40:06;;;;;;;;;13.33;12.67;;;26.59;97477.35;;;;116985;1193;25185;-60
2022/05/03 01:43:06;;;;;;;;;16.00;13.33;;;26.57;97478.92;;;;117363;1190;25310;-60
2022/05/03 01:45:58;;;;;;;;;13.33;12.33;;;26.57;97480.02;;;;117400;1189;24993;-61
2022/05/03 01:52:11;;;;;;;;;13.00;11.33;;;26.58;97481.72;;;;117340;1190;25495;-61
2022/05/03 01:54:58;;;;;;;;;10.75;10.25;;;26.52;97477.53;;;;117348;1190;25477;-62
2022/05/03 01:57:53;;;;;;;;;18.33;12.33;;;26.47;97473.29;;;;117337;1189;26122;-60
2022/05/03 02:00:25;;;;;;;;;12.25;12.25;;;26.45;97474.15;;;;117437;1190;25682;-61
2022/05/03 02:03:38;;;;;;;;;12.67;12.67;;;26.45;97476.41;;;;117377;1191;25541;-60
2022/05/03 02:06:10;;;;;;;;;14.33;14.33;;;26.52;97477.23;;;;117213;1190;24824;-61
2022/05/03 02:09:05;;;;;;;;;20.00;14.00;;;26.51;97475.46;;;;117365;1189;25593;-60
2022/05/03 02:12:06;;;;;;;;;6.75;6.75;;;26.48;97474.52;;;;117340;1190;25646;-61
2022/05/03 02:14:44;;;;;;;;;9.50;9.00;;;26.52;97470.74;;;;117291;1189;25614;-60
2022/05/03 02:17:43;;;;;;;;;10.00;10.00;;;26.51;97474.49;;;;117352;1190;25180;-60
2022/05/03 02:20:14;;;;;;;;;13.50;10.75;;;26.48;97474.75;;;;117388;1189;24903;-60
2022/05/03 02:23:05;;;;;;;;;14.67;14.67;;;26.45;97473.64;;;;117353;1189;25044;-59
2022/05/03 02:25:43;;;;;;;;;14.33;13.00;;;26.45;97480.31;;;;117343;1190;25250;-59
2022/05/03 02:28:23;;;;;;;;;13.25;11.25;;;26.45;97477.65;;;;117357;1190;25240;-61
2022/05/03 02:30:52;;;;;;;;;14.00;11.50;;;26.47;97478.38;;;;117430;1190;25313;-58
2022/05/03 02:33:23;;;;;;;;;10.75;8.50;;;26.47;97479.64;;;;117422;1190;24805;-60
2022/05/03 02:35:55;;;;;;;;;13.00;11.75;;;26.46;97484.23;;;;117353;1190;25585;-60
2022/05/03 02:38:34;;;;;;;;;14.75;11.75;;;26.45;97483.62;;;;117360;1190;26480;-59
2022/05/03 02:41:03;;;;;;;;;12.75;11.50;;;26.46;97481.43;;;;117363;1189;24871;-60
2022/05/03 02:43:32;;;;;;;;;15.50;11.50;;;26.46;97479.42;;;;117343;1189;24761;-60
2022/05/03 02:46:29;;;;;;;;;18.00;12.00;;;26.44;97476.48;;;;117327;1190;24939;-60
2022/05/03 02:49:03;;;;;;;;;16.00;11.00;;;26.47;97474.81;;;;117416;1191;24959;-60
2022/05/03 02:51:41;;;;;;;;;13.33;12.33;;;26.48;97475.90;;;;117392;1189;24963;-59
2022/05/03 02:54:39;;;;;;;;;14.00;12.75;;;26.47;97472.25;;;;117311;1190;25120;-59
2022/05/03 02:57:12;;;;;;;;;16.00;14.25;;;26.55;97473.26;;;;117356;1189;24838;-59
2022/05/03 03:03:08;;;;;;;;;11.25;11.00;;;26.61;97479.11;;;;117327;1188;25814;-59
2022/05/03 03:05:41;;;;;;;;;12.00;10.00;;;26.54;97477.96;;;;117376;1191;25814;-61
2022/05/03 03:08:12;;;;;;;;;14.67;12.00;;;26.53;97478.24;;;;117367;1190;25604;-59
2022/05/03 03:11:04;;;;;;;;;18.75;13.75;;;26.50;97479.45;;;;117354;1190;25456;-60
2022/05/03 03:14:02;;;;;;;;;14.33;12.67;;;26.49;97475.55;;;;117346;1189;25403;-59
2022/05/03 03:16:32;;;;;;;;;15.50;13.50;;;26.46;97474.76;;;;117350;1190;25713;-60
2022/05/03 03:19:25;;;;;;;;;9.25;9.25;;;26.41;97477.35;;;;117422;1191;25504;-59
2022/05/03 03:21:55;;;;;;;;;10.50;9.50;;;26.43;97479.83;;;;117352;1189;24824;-60
2022/05/03 03:24:25;;;;;;;;;12.75;10.50;;;26.40;97482.16;;;;117366;1190;25204;-57
2022/05/03 03:26:54;;;;;;;;;16.00;13.50;;;26.39;97482.92;;;;117529;1190;25018;-60
2022/05/03 03:29:24;;;;;;;;;14.00;13.33;;;26.46;97479.96;;;;117307;1190;24975;-63
2022/05/03 03:31:53;;;;;;;;;9.00;8.00;;;26.42;97477.25;;;;117315;1191;24843;-62
2022/05/03 03:34:21;;;;;;;;;13.50;8.75;;;26.40;97479.35;;;;117314;1190;25646;-60
2022/05/03 03:36:49;;;;;;;;;8.67;8.33;;;26.39;97477.42;;;;117406;1190;25237;-58
2022/05/03 03:39:17;;;;;;;;;10.33;10.33;;;26.39;97483.14;;;;117341;1190;25257;-58
2022/05/03 03:41:47;;;;;;;;;13.50;10.75;;;26.38;97480.56;;;;117396;1190;25408;-63
2022/05/03 03:44:15;;;;;;;;;19.25;13.00;;;26.40;97481.63;;;;117353;1190;25547;-60
2022/05/03 03:46:45;;;;;;;;;15.25;14.25;;;26.39;97482.89;;;;117373;1189;25943;-62
2022/05/03 03:49:15;;;;;;;;;14.00;11.33;;;26.39;97486.60;;;;117346;1189;26388;-62
2022/05/03 03:51:45;;;;;;;;;13.00;13.00;;;26.36;97489.90;;;;117340;1189;25656;-63
2022/05/03 03:54:13;;;;;;;;;13.00;11.00;;;26.35;97490.01;;;;117398;1191;25646;-63
2022/05/03 03:56:42;;;;;;;;;18.00;15.75;;;26.38;97492.27;;;;117344;1191;25415;-61
2022/05/03 03:59:10;;;;;;;;;15.25;13.75;;;26.36;97494.66;;;;117333;1190;25303;-60
2022/05/03 04:01:40;;;;;;;;;15.75;13.75;;;26.34;97497.77;;;;117293;1191;25147;-58
2022/05/03 04:04:09;;;;;;;;;10.33;10.33;;;26.32;97498.34;;;;117342;1191;25005;-63
2022/05/03 04:06:37;;;;;;;;;13.00;12.67;;;26.32;97494.20;;;;117332;1190;25104;-61
2022/05/03 04:09:05;;;;;;;;;8.25;6.00;;;26.33;97494.46;;;;117405;1190;25439;-60
2022/05/03 04:11:44;;;;;;;;;12.50;9.75;;;26.36;97496.80;;;;117334;1190;25448;-60
2022/05/03 04:14:12;;;;;;;;;13.75;13.25;;;26.34;97498.06;;;;117428;1188;25082;-59
2022/05/03 04:16:43;;;;;;;;;16.50;15.00;;;26.34;97503.20;;;;117425;1189;24777;-62
2022/05/03 04:19:20;;;;;;;;;16.00;11.50;;;26.37;97503.13;;;;117452;1189;25053;-60
2022/05/03 04:21:49;;;;;;;;;11.75;11.00;;;26.41;97501.86;;;;117881;1190;24991;-60
2022/05/03 04:24:17;;;;;;;;;12.67;12.00;;;26.54;97506.92;;;;117829;1190;25798;-64
2022/05/03 04:26:45;;;;;;;;;22.33;15.33;;;26.68;97502.70;;;;117636;1190;24992;-60
2022/05/03 04:29:16;;;;;;;;;29.00;28.00;;;26.73;97502.05;;;;117508;1189;25685;-61
2022/05/03 04:31:45;;;;;;;;;24.00;21.50;;;26.07;97503.02;;;;117415;1189;25345;-55
2022/05/03 04:34:17;;;;;;;;;27.00;20.67;;;25.63;97506.09;;;;117360;1190;25437;-55
2022/05/03 04:36:45;;;;;;;;;15.00;14.00;;;25.54;97502.73;;;;117562;1190;25255;-56
2022/05/03 04:39:15;;;;;;;;;23.33;20.33;;;25.67;97500.83;;;;117344;1190;24836;-55
2022/05/03 04:41:48;;;;;;;;;18.67;15.00;;;25.70;97500.60;;;;117539;1190;25541;-57
2022/05/03 04:44:19;;;;;;;;;18.50;15.75;;;25.84;97505.89;;;;117649;1189;25037;-55
2022/05/03 04:46:47;;;;;;;;;18.00;16.00;;;26.00;97504.40;;;;117382;1190;26540;-56
2022/05/03 04:49:15;;;;;;;;;19.50;16.50;;;26.01;97500.69;;;;117521;1188;25488;-58
2022/05/03 04:51:43;;;;;;;;;20.00;15.33;;;26.08;97497.61;;;;117363;1190;24796;-56
2022/05/03 04:54:11;;;;;;;;;14.25;10.00;;;26.06;97501.92;;;;117405;1190;25280;-58
2022/05/03 04:56:46;;;;;;;;;27.00;19.33;;;26.06;97500.98;;;;117396;1190;24727;-56
2022/05/03 04:59:14;;;;;;;;;19.75;18.25;;;26.10;97501.92;;;;117348;1190;25663;-56
2022/05/03 05:01:41;;;;;;;;;24.00;18.00;;;26.13;97503.38;;;;117327;1189;24777;-57
2022/05/03 05:04:09;;;;;;;;;19.50;17.75;;;26.15;97506.55;;;;117421;1190;25236;-56
2022/05/03 05:06:37;;;;;;;;;21.00;13.67;;;26.19;97506.68;;;;117352;1190;24944;-55
2022/05/03 05:09:05;;;;;;;;;21.75;19.25;;;26.19;97505.30;;;;117404;1190;25206;-53
2022/05/03 05:11:34;;;;;;;;;17.75;15.00;;;26.22;97504.92;;;;117349;1190;24953;-57
2022/05/03 05:14:02;;;;;;;;;20.25;14.25;;;26.27;97507.69;;;;117370;1189;25109;-55
2022/05/03 05:16:30;;;;;;;;;12.75;12.75;;;26.25;97512.10;;;;117373;1190;25668;-54
2022/05/03 05:18:58;;;;;;;;;18.50;17.25;;;26.26;97511.77;;;;117388;1189;24919;-55
2022/05/03 05:21:26;;;;;;;;;26.67;20.00;;;26.22;97512.73;;;;117699;1190;25307;-57
2022/05/03 05:23:53;;;;;;;;;22.00;16.00;;;26.31;97509.79;;;;117511;1190;25660;-55
2022/05/03 05:26:22;;;;;;;;;20.75;18.00;;;26.34;97514.59;;;;117425;1190;24861;-57
2022/05/03 05:28:49;;;;;;;;;21.50;17.50;;;26.34;97518.39;;;;117454;1189;25332;-56
2022/05/03 05:31:17;;;;;;;;;18.00;14.75;;;26.34;97518.23;;;;117479;1190;25006;-59
2022/05/03 05:33:45;;;;;;;;;20.25;17.50;;;26.38;97518.38;;;;117430;1190;24884;-56
2022/05/03 05:36:13;;;;;;;;;17.50;15.00;;;26.38;97518.27;;;;117522;1190;24919;-55
2022/05/03 05:38:40;;;;;;;;;20.00;16.50;;;26.41;97520.20;;;;117393;1190;26307;-56
2022/05/03 05:41:14;;;;;;;;;24.67;17.33;;;26.41;97523.77;;;;117453;1190;25382;-59
2022/05/03 05:43:43;;;;;;;;;19.75;15.50;;;26.42;97523.72;;;;117545;1190;25269;-58
2022/05/03 05:46:10;;;;;;;;;18.67;15.33;;;26.46;97526.25;;;;117412;1190;24932;-58
2022/05/03 05:48:39;;;;;;;;;14.67;10.00;;;26.47;97526.30;;;;117502;1190;26176;-56
2022/05/03 05:51:08;;;;;;;;;24.33;16.33;;;26.49;97527.79;;;;117401;1190;25002;-56
2022/05/03 05:53:36;;;;;;;;;17.75;12.75;;;26.49;97531.23;;;;117424;1189;26425;-57
2022/05/03 05:56:04;;;;;;;;;17.50;15.00;;;26.49;97530.52;;;;117409;1190;26793;-56
2022/05/03 05:58:32;;;;;;;;;16.00;14.00;;;26.49;97535.58;;;;117481;1190;26298;-55
2022/05/03 06:01:04;;;;;;;;;16.50;14.75;;;26.52;97535.77;;;;117491;1190;25466;-56
2022/05/03 06:03:33;;;;;;;;;21.67;18.00;;;26.53;97535.46;;;;117689;1190;25455;-55
2022/05/03 06:06:01;;;;;;;;;22.67;16.00;;;26.62;97532.59;;;;117536;1189;25649;-57
2022/05/03 06:08:29;;;;;;;;;16.75;15.25;;;26.64;97531.62;;;;117559;1190;25099;-57
2022/05/03 06:10:59;;;;;;;;;18.00;15.25;;;26.66;97533.44;;;;117491;1188;26073;-55
2022/05/03 06:13:27;;;;;;;;;15.25;13.50;;;26.66;97536.34;;;;117464;1190;25413;-58
2022/05/03 06:15:55;;;;;;;;;17.00;10.75;;;26.65;97536.87;;;;117651;1190;25344;-57
2022/05/03 06:18:23;;;;;;;;;24.25;15.25;;;26.70;97536.98;;;;117460;1188;24707;-55
2022/05/03 06:20:50;;;;;;;;;20.50;16.00;;;26.68;97535.17;;;;117478;1190;25059;-57
2022/05/03 06:23:18;;;;;;;;;17.00;15.50;;;26.69;97536.77;;;;117424;1190;25963;-58
2022/05/03 06:25:47;;;;;;;;;17.67;15.33;;;26.67;97538.55;;;;117451;1189;25757;-55
2022/05/03 06:28:14;;;;;;;;;15.00;13.67;;;26.66;97542.53;;;;117431;1190;24785;-58
2022/05/03 06:30:42;;;;;;;;;18.50;16.25;;;26.61;97540.30;;;;117426;1190;25509;-58
2022/05/03 06:33:10;;;;;;;;;13.50;13.50;;;26.62;97541.05;;;;117388;1189;24939;-57
2022/05/03 06:35:38;;;;;;;;;21.25;15.25;;;26.66;97540.25;;;;117415;1189;25141;-56
2022/05/03 06:38:06;;;;;;;;;13.67;11.67;;;26.67;97540.52;;;;117531;1191;25323;-58
2022/05/03 06:40:34;;;;;;;;;17.00;16.75;;;26.69;97539.39;;;;117505;1190;24940;-56
2022/05/03 06:43:04;;;;;;;;;19.00;16.75;;;26.73;97538.08;;;;117391;1190;25291;-59
2022/05/03 06:45:32;;;;;;;;;14.00;12.00;;;26.73;97537.15;;;;117404;1190;24707;-60
2022/05/03 06:48:12;;;;;;;;;21.25;16.25;;;26.76;97535.44;;;;117464;1190;25516;-55
2022/05/03 06:50:42;;;;;;;;;10.67;9.67;;;26.82;97533.54;;;;117387;1189;25833;-60
2022/05/03 06:53:10;;;;;;;;;15.67;15.00;;;26.83;97533.39;;;;117596;1190;25550;-62
2022/05/03 06:55:40;;;;;;;;;13.25;12.50;;;26.89;97535.49;;;;117423;1189;25636;-60
2022/05/03 06:58:10;;;;;;;;;18.50;16.00;;;26.91;97538.86;;;;117468;1190;25760;-59
2022/05/03 07:00:40;;;;;;;;;17.75;14.25;;;26.90;97537.48;;;;117341;1190;24974;-59
2022/05/03 07:03:09;;;;;;;;;17.67;14.00;;;26.86;97535.20;;;;117472;1191;25144;-58
2022/05/03 07:05:40;;;;;;;;;19.25;15.25;;;26.88;97540.66;;;;117378;1190;25659;-61
2022/05/03 07:08:10;;;;;;;;;15.75;14.50;;;26.88;97540.48;;;;117580;1190;25202;-60
2022/05/03 07:10:40;;;;;;;;;13.33;12.33;;;26.95;97541.66;;;;117473;1190;25958;-65
2022/05/03 07:13:14;;;;;;;;;13.50;12.25;;;26.98;97542.70;;;;117439;1189;25495;-60
2022/05/03 07:15:43;;;;;;;;;13.50;11.75;;;27.00;97543.13;;;;117373;1190;26383;-59
2022/05/03 07:23:53;;;;;;;;;18.25;15.00;;;27.09;97541.77;;;;117364;1190;25412;-60
2022/05/03 07:26:22;;;;;;;;;15.50;9.50;;;27.08;97538.69;;;;117349;1190;25538;-60
2022/05/03 07:28:50;;;;;;;;;14.67;12.00;;;27.11;97540.08;;;;117463;1188;25394;-63
2022/05/03 07:31:19;;;;;;;;;15.67;10.67;;;27.13;97540.86;;;;117405;1190;24971;-60
2022/05/03 07:33:48;;;;;;;;;9.00;9.00;;;27.17;97541.14;;;;117460;1189;25034;-63
2022/05/03 07:36:20;;;;;;;;;8.75;8.50;;;27.26;97539.39;;;;117493;1189;24902;-60
2022/05/03 07:38:51;;;;;;;;;14.50;11.00;;;27.31;97539.77;;;;117421;1189;25240;-60
2022/05/03 07:41:20;;;;;;;;;9.00;7.50;;;27.35;97539.67;;;;117686;1190;25442;-62
2022/05/03 07:43:48;;;;;;;;;12.00;11.00;;;27.40;97543.26;;;;117482;1190;24920;-58
2022/05/03 07:46:16;;;;;;;;;13.75;13.25;;;27.43;97538.66;;;;117429;1190;25754;-59
2022/05/03 07:48:44;;;;;;;;;10.00;8.33;;;27.42;97541.07;;;;117429;1189;25587;-62
2022/05/03 07:51:12;;;;;;;;;11.75;8.75;;;27.42;97540.15;;;;117375;1189;25211;-60
2022/05/03 07:53:40;;;;;;;;;9.00;8.50;;;27.39;97540.77;;;;117376;1190;24951;-59
2022/05/03 07:56:14;;;;;;;;;14.00;10.50;;;27.39;97540.06;;;;117448;1189;25624;-57
2022/05/03 07:58:42;;;;;;;;;14.50;12.00;;;27.44;97537.33;;;;117477;1190;25723;-59
2022/05/03 08:01:10;;;;;;;;;12.33;9.00;;;27.46;97536.57;;;;117443;1190;24748;-63
2022/05/03 08:03:48;;;;;;;;;;;;;;;;;;;;;
2022/05/03 08:06:26;;;;;;;;;10.00;8.50;;;27.48;97540.79;;;;117459;1190;25755;-58
2022/05/03 08:08:56;;;;;;;;;9.50;9.00;;;27.53;97544.48;;;;117381;1190;25315;-62
2022/05/03 08:11:29;;;;;;;;;11.00;9.50;;;27.52;97545.82;;;;117445;1190;25538;-61
2022/05/03 08:13:58;;;;;;;;;13.75;11.50;;;27.51;97543.77;;;;117446;1190;25541;-60
2022/05/03 08:16:30;;;;;;;;;11.00;10.75;;;27.50;97540.91;;;;117538;1190;24760;-61
2022/05/03 08:18:59;;;;;;;;;8.50;8.50;;;27.50;97539.73;;;;117444;1190;25482;-59
2022/05/03 08:21:28;;;;;;;;;10.25;10.00;;;27.47;97539.78;;;;117429;1190;25464;-59
2022/05/03 08:23:57;;;;;;;;;4.33;3.33;;;27.45;97539.58;;;;117355;1189;25179;-63
2022/05/03 08:26:25;;;;;;;;;9.50;8.25;;;27.45;97540.07;;;;117442;1190;25737;-57
2022/05/03 08:28:54;;;;;;;;;11.00;7.50;;;27.44;97536.98;;;;117406;1190;25091;-59
2022/05/03 08:31:24;;;;;;;;;11.75;9.50;;;27.41;97534.42;;;;117346;1188;24950;-56
2022/05/03 08:33:52;;;;;;;;;10.33;9.67;;;27.38;97533.23;;;;117617;1189;24908;-58
2022/05/03 08:36:21;;;;;;;;;10.50;10.50;;;27.42;97531.05;;;;117341;1190;25113;-57
2022/05/03 08:44:22;;;;;;;;;13.50;10.75;;;27.45;97526.38;;;;117489;1189;26384;-60
2022/05/03 08:46:53;;;;;;;;;12.25;10.25;;;27.44;97526.66;;;;117487;1190;26067;-57
2022/05/03 08:49:24;;;;;;;;;13.75;12.25;;;27.44;97527.08;;;;117509;1189;25843;-58
2022/05/03 08:51:54;;;;;;;;;14.75;11.50;;;27.46;97526.23;;;;117470;1189;24941;-59
2022/05/03 08:54:25;;;;;;;;;10.50;10.50;;;27.46;97526.81;;;;117306;1190;25014;-59
2022/05/03 08:56:55;;;;;;;;;13.33;13.33;;;27.39;97526.55;;;;117556;1189;25095;-57
2022/05/03 08:59:23;;;;;;;;;17.33;10.00;;;27.40;97521.12;;;;117471;1189;25541;-57
2022/05/03 09:01:51;;;;;;;;;14.00;11.50;;;27.42;97525.23;;;;117428;1190;25479;-57
2022/05/03 09:04:21;;;;;;;;;13.75;12.50;;;27.41;97526.94;;;;117323;1190;25336;-61
2022/05/03 09:06:52;;;;;;;;;9.33;8.00;;;27.39;97521.77;;;;117423;1189;25224;-59
2022/05/03 09:09:39;;;;;;;;;11.75;10.00;;;27.41;97519.48;;;;117457;1188;25376;-59
2022/05/03 09:12:27;;;;;;;;;11.75;10.00;;;27.48;97513.45;;;;117511;1189;26151;-59
2022/05/03 09:15:01;;;;;;;;;10.75;10.75;;;27.56;97509.65;;;;117467;1190;24791;-60
2022/05/03 09:17:43;;;;;;;;;14.50;12.75;;;27.57;97506.55;;;;117489;1189;25150;-59
2022/05/03 09:26:16;;;;;;;;;13.50;10.00;;;27.61;97507.59;;;;117398;1190;25399;-65
2022/05/03 09:28:52;;;;;;;;;14.33;12.33;;;27.56;97504.39;;;;117393;1188;25092;-61
2022/05/03 09:31:39;;;;;;;;;19.75;15.25;;;27.54;97505.80;;;;117473;1190;25609;-62
2022/05/03 09:34:28;;;;;;;;;11.00;11.00;;;27.54;97505.38;;;;117539;1190;25698;-63
2022/05/03 09:37:05;;;;;;;;;20.50;12.50;;;27.54;97508.24;;;;117373;1190;24956;-61
2022/05/03 09:39:41;;;;;;;;;15.50;14.00;;;27.53;97504.52;;;;117413;1188;24884;-61
2022/05/03 09:42:12;;;;;;;;;15.33;12.00;;;27.55;97500.14;;;;117416;1189;25210;-62
2022/05/03 09:45:00;;;;;;;;;8.00;7.50;;;27.56;97495.40;;;;117359;1189;24947;-61
2022/05/03 09:47:33;;;;;;;;;20.25;12.00;;;27.57;97493.05;;;;117357;1190;25135;-61
2022/05/03 09:50:02;;;;;;;;;15.75;12.00;;;27.55;97487.25;;;;117331;1189;25500;-58
2022/05/03 09:52:38;;;;;;;;;17.00;13.75;;;27.51;97485.64;;;;117333;1189;25016;-62
2022/05/03 09:55:08;;;;;;;;;16.50;14.75;;;27.51;97484.02;;;;117368;1188;25175;-63
2022/05/03 09:57:44;;;;;;;;;16.00;13.25;;;27.52;97484.23;;;;117343;1190;24855;-63
2022/05/03 10:00:17;;;;;;;;;8.25;7.50;;;27.53;97478.14;;;;117325;1189;25133;-58
2022/05/03 10:02:50;;;;;;;;;15.25;12.25;;;27.55;97471.33;;;;117420;1188;26351;-60
2022/05/03 10:05:21;;;;;;;;;10.75;8.25;;;27.58;97475.79;;;;117344;1190;24799;-61
2022/05/03 10:07:52;;;;;;;;;18.00;15.67;;;27.56;97470.95;;;;117339;1191;25581;-60
2022/05/03 10:10:22;;;;;;;;;14.50;13.50;;;27.55;97467.05;;;;117436;1190;25225;-63
2022/05/03 10:12:51;;;;;;;;;14.00;13.75;;;27.54;97466.99;;;;117397;1190;25398;-59
2022/05/03 10:21:51;;;;;;;;;16.00;13.67;;;27.71;97462.27;;;;117289;1190;24908;-60
2022/05/03 10:24:26;;;;;;;;;15.25;11.00;;;27.66;97463.50;;;;117335;1190;24780;-57
2022/05/03 10:27:05;;;;;;;;;15.33;14.33;;;27.64;97460.11;;;;117393;1190;25356;-60
2022/05/03 10:29:35;;;;;;;;;16.75;12.25;;;27.63;97459.92;;;;117358;1190;25242;-62
2022/05/03 10:32:08;;;;;;;;;13.00;10.50;;;27.61;97458.64;;;;117354;1190;25769;-58
2022/05/03 10:34:42;;;;;;;;;13.25;13.25;;;27.60;97451.35;;;;117374;1190;26328;-55
2022/05/03 10:37:12;;;;;;;;;10.75;8.50;;;27.61;97451.08;;;;117413;1190;25209;-61
2022/05/03 10:40:00;;;;;;;;;11.75;10.75;;;27.62;97447.89;;;;117324;1191;24848;-57
2022/05/03 10:42:33;;;;;;;;;12.33;12.00;;;27.63;97445.77;;;;117374;1189;25236;-58
2022/05/03 10:45:12;;;;;;;;;18.50;14.00;;;27.62;97442.70;;;;117482;1190;25356;-58
2022/05/03 10:47:52;;;;;;;;;15.00;12.67;;;27.68;97438.89;;;;117498;1189;25116;-60
2022/05/03 10:50:26;;;;;;;;;15.75;14.75;;;27.69;97437.77;;;;117449;1190;24982;-61
2022/05/03 10:52:55;;;;;;;;;19.50;15.00;;;27.69;97431.18;;;;117388;1190;25630;-59
2022/05/03 10:55:44;;;;;;;;;14.67;13.33;;;27.68;97431.88;;;;117410;1190;26426;-58
2022/05/03 10:58:19;;;;;;;;;13.50;10.75;;;27.76;97430.92;;;;117358;1190;25727;-63
2022/05/03 11:01:04;;;;;;;;;14.25;10.75;;;27.78;97423.88;;;;117426;1190;24870;-61
2022/05/03 11:03:35;;;;;;;;;13.00;11.75;;;27.74;97417.16;;;;117328;1191;25261;-61
2022/05/03 11:06:16;;;;;;;;;15.00;14.50;;;27.71;97412.13;;;;117068;1191;25521;-59
2022/05/03 11:11:37;;;;;;;;;16.25;14.25;;;27.68;97409.17;;;;117302;1190;24850;-58
2022/05/03 11:14:11;;;;;;;;;16.67;15.33;;;27.65;97409.00;;;;117437;1190;25528;-62
2022/05/03 11:16:39;;;;;;;;;9.00;9.00;;;27.67;97406.09;;;;117344;1191;25142;-58
2022/05/03 11:19:18;;;;;;;;;17.00;15.25;;;27.66;97403.73;;;;117351;1190;24861;-60
2022/05/03 11:21:49;;;;;;;;;16.50;14.25;;;27.70;97404.95;;;;117333;1190;25383;-60
2022/05/03 11:24:23;;;;;;;;;14.25;14.00;;;27.70;97405.52;;;;117759;1191;25076;-60
2022/05/03 11:26:59;;;;;;;;;16.67;14.33;;;27.85;97403.08;;;;118445;1191;25486;-62
2022/05/03 11:29:31;;;;;;;;;10.25;10.00;;;28.15;97401.66;;;;118586;1191;24795;-57
2022/05/03 11:32:01;;;;;;;;;14.50;13.25;;;28.43;97398.66;;;;118956;1190;25109;-59
2022/05/03 11:34:29;;;;;;;;;17.00;15.25;;;28.71;97398.75;;;;118894;1189;25514;-58
2022/05/03 11:36:57;;;;;;;;;13.00;12.50;;;28.92;97397.30;;;;118845;1191;25109;-57
2022/05/03 11:39:25;;;;;;;;;14.25;13.00;;;29.02;97396.48;;;;118979;1188;25189;-60
2022/05/03 11:41:58;;;;;;;;;18.75;14.75;;;29.15;97392.58;;;;118436;1189;26815;-60
2022/05/03 11:44:29;;;;;;;;;15.00;15.00;;;29.15;97386.04;;;;118410;1189;25707;-59
2022/05/03 11:47:02;;;;;;;;;13.00;13.00;;;29.11;97382.05;;;;118340;1189;25529;-60
2022/05/03 11:49:31;;;;;;;;;15.00;13.25;;;29.12;97379.35;;;;118456;1191;25576;-61
2022/05/03 11:57:42;;;;;;;;;16.67;15.33;;;29.51;97372.58;;;;119121;1188;25542;-62
2022/05/03 12:00:14;;;;;;;;;16.25;13.25;;;29.58;97366.34;;;;118838;1189;25733;-58
2022/05/03 12:02:45;;;;;;;;;12.50;12.50;;;29.59;97365.31;;;;118699;1188;25118;-57
2022/05/03 12:05:17;;;;;;;;;22.00;15.67;;;29.54;97361.64;;;;118534;1191;25145;-60
2022/05/03 12:07:51;;;;;;;;;20.50;16.75;;;29.45;97354.68;;;;118405;1191;25987;-58
2022/05/03 12:10:31;;;;;;;;;16.25;13.25;;;29.41;97354.84;;;;118750;1190;24741;-62
2022/05/03 12:13:06;;;;;;;;;18.75;16.25;;;29.38;97351.69;;;;117486;1190;25175;-56
2022/05/03 12:15:44;;;;;;;;;16.25;14.50;;;29.08;97351.75;;;;117930;1190;25258;-60
2022/05/03 12:18:18;;;;;;;;;10.25;10.25;;;28.97;97351.87;;;;118058;1190;25394;-61
2022/05/03 12:20:48;;;;;;;;;18.50;15.75;;;28.93;97345.39;;;;117877;1189;25790;-58
2022/05/03 12:23:24;;;;;;;;;15.75;14.50;;;28.83;97342.17;;;;118179;1190;24746;-59
2022/05/03 12:25:56;;;;;;;;;10.50;10.25;;;28.87;97339.20;;;;118525;1190;25680;-63
2022/05/03 12:28:41;;;;;;;;;15.00;14.00;;;29.02;97337.12;;;;118554;1189;25738;-59
2022/05/03 12:31:12;;;;;;;;;17.00;17.00;;;29.14;97334.88;;;;118746;1189;25352;-60
2022/05/03 12:33:48;;;;;;;;;15.50;14.00;;;29.23;97334.89;;;;118714;1190;25011;-63
2022/05/03 12:36:43;;;;;;;;;14.25;11.25;;;29.32;97331.98;;;;119053;1189;25658;-64
2022/05/03 12:39:20;;;;;;;;;17.25;12.00;;;29.50;97330.55;;;;118831;1189;25725;-60
2022/05/03 12:42:02;;;;;;;;;13.75;12.75;;;29.49;97327.67;;;;118501;1189;25304;-58
2022/05/03 12:44:31;;;;;;;;;15.50;10.25;;;29.46;97322.74;;;;118712;1190;24711;-59
2022/05/03 12:47:06;;;;;;;;;11.75;9.75;;;29.47;97330.68;;;;118463;1191;25064;-61
2022/05/03 12:49:37;;;;;;;;;11.75;11.75;;;29.48;97327.27;;;;118411;1190;25664;-58
2022/05/03 12:52:07;;;;;;;;;10.75;10.25;;;29.41;97325.91;;;;118557;1190;24873;-58
2022/05/03 12:54:42;;;;;;;;;17.25;14.75;;;29.39;97323.97;;;;118720;1188;24845;-65
2022/05/03 12:59:58;;;;;;;;;10.50;10.50;;;29.44;97319.43;;;;118489;1189;24945;-62
2022/05/03 13:02:26;;;;;;;;;11.75;10.25;;;29.36;97322.67;;;;118295;1190;25050;-58
2022/05/03 13:04:56;;;;;;;;;12.00;10.00;;;29.27;97321.72;;;;118356;1190;25506;-61
2022/05/03 13:07:24;;;;;;;;;11.25;10.75;;;29.23;97318.70;;;;118105;1189;25158;-59